Time;durP1;ratioP1;P1;durP2;ratioP2;P2;SDS_P1;SDS_P2;PMS_P1;PMS_P2;Temp;Humidity;BMP_temperature;BMP_pressure;BME280_temperature;BME280_humidity;BME280_pressure;Samples;Min_cycle;Max_cycle;Signal;HPM_P1;HPM_P2
2023/03/27 00:00:41;;;;;;;1.30;0.87;;;;;;;10.96;60.82;96365.34;5041240;28;20507;-71
2023/03/27 00:03:07;;;;;;;1.50;1.10;;;;;;;10.95;60.95;96373.41;5040812;28;20426;-70
2023/03/27 00:05:34;;;;;;;1.87;0.93;;;;;;;10.91;61.21;96379.00;5032665;28;20827;-71
2023/03/27 00:08:00;;;;;;;1.57;0.90;;;;;;;10.89;60.94;96380.97;5030027;28;20849;-71
2023/03/27 00:10:26;;;;;;;1.33;1.10;;;;;;;10.79;61.08;96376.94;5045472;28;21004;-71
2023/03/27 00:12:52;;;;;;;1.10;0.80;;;;;;;10.73;61.19;96386.31;5047761;28;20423;-71
2023/03/27 00:15:17;;;;;;;0.97;0.83;;;;;;;10.71;61.17;96394.34;5049766;28;20842;-69
2023/03/27 00:17:46;;;;;;;1.33;1.10;;;;;;;10.70;61.24;96389.31;5036260;28;20222;-71
2023/03/27 00:20:13;;;;;;;3.00;1.00;;;;;;;10.66;61.39;96396.66;5047218;28;20186;-70
2023/03/27 00:22:39;;;;;;;1.37;1.27;;;;;;;10.67;61.53;96406.16;5042226;28;20467;-71
2023/03/27 00:25:05;;;;;;;2.40;1.10;;;;;;;10.68;61.48;96404.38;5047939;28;20883;-70
2023/03/27 00:27:31;;;;;;;1.20;1.00;;;;;;;10.66;61.54;96403.72;5053691;28;20583;-70
2023/03/27 00:29:56;;;;;;;1.70;1.27;;;;;;;10.68;61.73;96407.00;5040989;28;20266;-70
2023/03/27 00:32:22;;;;;;;1.83;1.30;;;;;;;10.72;61.69;96416.13;5045109;28;20202;-70
2023/03/27 00:34:47;;;;;;;1.10;1.00;;;;;;;10.69;61.54;96419.91;5034631;28;20710;-71
2023/03/27 00:37:13;;;;;;;1.42;1.30;;;;;;;10.61;61.96;96425.22;5056211;28;20488;-70
2023/03/27 00:39:40;;;;;;;1.10;1.00;;;;;;;10.57;62.12;96429.97;5041046;28;20199;-70
2023/03/27 00:42:11;;;;;;;1.40;1.23;;;;;;;10.60;61.73;96440.09;5040166;28;20269;-70
2023/03/27 00:44:37;;;;;;;2.03;1.77;;;;;;;10.65;61.62;96449.25;5048319;28;20449;-70
2023/03/27 00:47:03;;;;;;;1.93;1.73;;;;;;;10.67;61.71;96452.53;5053700;28;20494;-70
2023/03/27 00:49:31;;;;;;;3.83;3.30;;;;;;;10.51;61.52;96445.56;5049147;28;20175;-70
2023/03/27 00:51:57;;;;;;;2.20;2.00;;;;;;;10.56;61.49;96464.19;5046418;28;20465;-69
2023/03/27 00:54:28;;;;;;;3.77;2.80;;;;;;;10.55;61.96;96458.16;5037745;28;20429;-69
2023/03/27 00:57:01;;;;;;;1.50;1.40;;;;;;;10.49;62.01;96468.50;5048758;28;20437;-70
2023/03/27 00:59:30;;;;;;;2.63;2.10;;;;;;;10.44;62.07;96458.53;5058695;28;20422;-71
2023/03/27 01:01:57;;;;;;;1.50;1.40;;;;;;;10.30;62.31;96454.75;5041064;28;20428;-70
2023/03/27 01:04:23;;;;;;;3.10;2.80;;;;;;;10.30;61.95;96471.31;5061995;28;20450;-70
2023/03/27 01:06:50;;;;;;;2.60;1.80;;;;;;;10.25;61.98;96478.84;5058938;28;20440;-70
2023/03/27 01:09:16;;;;;;;11.27;5.63;;;;;;;10.21;61.87;96476.72;5057125;28;20175;-70
2023/03/27 01:11:54;;;;;;;2.73;2.53;;;;;;;10.07;61.95;96483.47;5048479;28;20445;-71
2023/03/27 01:14:45;;;;;;;4.90;3.33;;;;;;;10.04;61.60;96496.91;5054801;28;20167;-71
2023/03/27 01:17:37;;;;;;;7.53;5.33;;;;;;;10.02;61.45;96494.44;5051571;28;20520;-70
2023/03/27 01:20:08;;;;;;;4.00;2.83;;;;;;;9.97;61.85;96497.53;5045614;28;20429;-70
2023/03/27 01:22:59;;;;;;;4.00;3.60;;;;;;;9.98;61.85;96501.78;5050244;28;20942;-70
2023/03/27 01:25:30;;;;;;;2.20;2.00;;;;;;;10.01;61.68;96505.91;5040238;28;20459;-71
2023/03/27 01:27:57;;;;;;;4.57;1.90;;;;;;;10.06;61.58;96521.13;5051756;28;20433;-69
2023/03/27 01:30:24;;;;;;;3.03;2.73;;;;;;;9.97;61.42;96507.22;5046895;28;20780;-68
2023/03/27 01:33:08;;;;;;;6.47;3.90;;;;;;;9.92;62.04;96515.56;5042917;28;20426;-67
2023/03/27 01:36:03;;;;;;;2.43;2.20;;;;;;;9.98;62.51;96520.13;5047919;28;20409;-70
2023/03/27 01:39:05;;;;;;;2.50;2.30;;;;;;;9.96;62.06;96535.16;5047662;28;20760;-70
2023/03/27 01:41:39;;;;;;;1.80;1.70;;;;;;;10.04;62.01;96541.41;5039589;28;20425;-70
2023/03/27 01:44:26;;;;;;;3.60;2.97;;;;;;;9.97;61.81;96538.63;5052280;28;20453;-71
2023/03/27 01:47:09;;;;;;;2.50;2.30;;;;;;;9.92;61.97;96554.81;5053985;28;20483;-70
2023/03/27 01:49:39;;;;;;;2.83;2.10;;;;;;;9.88;61.27;96556.13;5039604;28;20422;-70
2023/03/27 01:52:11;;;;;;;2.60;2.40;;;;;;;9.90;61.94;96569.88;5044685;28;20426;-71
2023/03/27 01:54:48;;;;;;;3.17;2.50;;;;;;;9.96;61.85;96571.00;5026853;28;20407;-70
2023/03/27 01:57:34;;;;;;;1.87;1.77;;;;;;;9.99;61.66;96576.72;5038596;28;20464;-70
2023/03/27 02:00:16;;;;;;;3.27;1.60;;;;;;;10.04;61.21;96583.28;5051022;28;20824;-71
2023/03/27 02:03:21;;;;;;;3.20;2.70;;;;;;;9.95;61.16;96585.06;5044250;28;20939;-71
2023/03/27 02:05:49;;;;;;;2.27;2.07;;;;;;;9.87;61.00;96601.59;5040501;28;20461;-70
2023/03/27 02:08:23;;;;;;;2.80;2.57;;;;;;;9.78;60.47;96607.81;5056510;28;20440;-70
2023/03/27 02:10:52;;;;;;;3.80;2.90;;;;;;;9.70;60.16;96616.47;5032748;28;20430;-70
2023/03/27 02:13:33;;;;;;;5.13;3.00;;;;;;;9.61;60.04;96628.69;5044499;28;20455;-70
2023/03/27 02:16:00;;;;;;;5.47;4.67;;;;;;;9.50;59.64;96629.84;5048731;28;20425;-70
2023/03/27 02:18:33;;;;;;;8.97;4.53;;;;;;;9.45;59.17;96641.75;5045940;28;20446;-69
2023/03/27 02:21:01;;;;;;;8.00;4.67;;;;;;;9.33;58.71;96636.78;5047600;28;21001;-70
2023/03/27 02:23:26;;;;;;;10.73;4.53;;;;;;;9.16;58.42;96651.59;5049503;28;20418;-71
2023/03/27 02:25:53;;;;;;;11.20;4.83;;;;;;;9.18;58.79;96649.66;5036641;28;20568;-70
2023/03/27 02:28:53;;;;;;;15.80;6.47;;;;;;;9.05;58.49;96655.34;5051594;28;20203;-71
2023/03/27 02:31:41;;;;;;;12.27;5.23;;;;;;;8.98;59.35;96667.38;5029862;28;20449;-70
2023/03/27 02:34:30;;;;;;;6.63;4.57;;;;;;;8.90;59.60;96673.38;5054976;28;20862;-70
2023/03/27 02:37:16;;;;;;;13.40;5.50;;;;;;;8.73;59.45;96684.72;5049450;28;20479;-70
2023/03/27 02:39:51;;;;;;;8.50;5.23;;;;;;;8.82;60.05;96693.44;5045872;28;20409;-69
2023/03/27 02:42:45;;;;;;;13.80;5.60;;;;;;;8.88;60.00;96705.88;5039178;28;20421;-69
2023/03/27 02:45:43;;;;;;;12.00;5.97;;;;;;;8.81;60.05;96710.88;5044719;28;20859;-71
2023/03/27 02:48:16;;;;;;;29.27;6.33;;;;;;;8.86;59.70;96715.66;5035110;28;20434;-70
2023/03/27 02:50:52;;;;;;;14.60;6.53;;;;;;;8.78;59.42;96723.44;5051662;28;20401;-69
2023/03/27 02:53:20;;;;;;;11.43;6.00;;;;;;;8.79;59.73;96723.28;5043570;28;20422;-70
2023/03/27 02:55:53;;;;;;;11.53;6.30;;;;;;;8.63;59.11;96729.22;5041704;28;20437;-69
2023/03/27 02:58:23;;;;;;;21.20;7.67;;;;;;;8.66;59.88;96728.91;5046847;28;20584;-69
2023/03/27 03:00:50;;;;;;;15.37;7.13;;;;;;;8.57;60.15;96741.09;5049098;28;20458;-70
2023/03/27 03:03:27;;;;;;;15.00;7.30;;;;;;;8.56;59.44;96744.66;5049753;28;20436;-71
2023/03/27 03:05:54;;;;;;;14.20;6.97;;;;;;;8.42;60.28;96751.22;5044773;28;20485;-70
2023/03/27 03:08:20;;;;;;;14.10;7.50;;;;;;;8.53;60.33;96762.44;5034611;28;20446;-70
2023/03/27 03:10:46;;;;;;;10.47;6.10;;;;;;;8.43;59.95;96763.31;5049913;28;20903;-70
2023/03/27 03:13:13;;;;;;;16.10;6.30;;;;;;;8.46;60.19;96776.03;5050726;28;20429;-71
2023/03/27 03:15:38;;;;;;;16.80;6.63;;;;;;;8.55;60.66;96784.00;5048051;28;20801;-69
2023/03/27 03:18:04;;;;;;;16.23;6.13;;;;;;;8.54;60.21;96795.41;5050771;28;20449;-70
2023/03/27 03:20:29;;;;;;;10.10;5.30;;;;;;;8.57;59.83;96798.56;5041697;28;20187;-72
2023/03/27 03:22:56;;;;;;;10.53;4.97;;;;;;;8.51;59.17;96800.94;5041674;28;20186;-70
2023/03/27 03:25:22;;;;;;;17.67;5.00;;;;;;;8.49;59.11;96806.31;5043320;28;20676;-69
2023/03/27 03:27:48;;;;;;;13.33;5.10;;;;;;;8.43;58.60;96804.25;5043191;28;20444;-69
2023/03/27 03:30:13;;;;;;;14.20;4.07;;;;;;;8.29;57.45;96816.84;5039925;28;21125;-69
2023/03/27 03:32:39;;;;;;;11.23;4.27;;;;;;;8.39;58.06;96823.78;5041914;28;20184;-69
2023/03/27 03:35:05;;;;;;;12.23;4.03;;;;;;;8.45;58.11;96829.25;5039115;28;20265;-70
2023/03/27 03:37:37;;;;;;;9.90;4.07;;;;;;;8.43;57.82;96831.22;5041744;28;20594;-70
2023/03/27 03:40:12;;;;;;;12.90;3.63;;;;;;;8.44;56.66;96845.88;5039865;28;20512;-70
2023/03/27 03:42:44;;;;;;;8.93;3.80;;;;;;;8.49;57.23;96858.56;5041301;28;20409;-70
2023/03/27 03:45:10;;;;;;;8.87;3.47;;;;;;;8.49;57.39;96858.56;5043737;28;20449;-70
2023/03/27 03:47:35;;;;;;;10.27;3.70;;;;;;;8.49;55.95;96861.16;5028885;28;20433;-70
2023/03/27 03:50:01;;;;;;;8.80;3.20;;;;;;;8.46;56.20;96870.06;5035679;28;20215;-70
2023/03/27 03:52:26;;;;;;;7.17;3.10;;;;;;;8.53;56.14;96879.97;5051029;28;20206;-70
2023/03/27 03:54:52;;;;;;;11.10;3.80;;;;;;;8.54;56.11;96886.84;5054556;28;20659;-70
2023/03/27 03:57:18;;;;;;;9.57;3.43;;;;;;;8.57;56.21;96900.41;4993948;28;20303;-70
2023/03/27 03:59:44;;;;;;;14.70;3.47;;;;;;;8.60;55.71;96904.53;5073950;28;20643;-72
2023/03/27 04:02:11;;;;;;;8.40;2.90;;;;;;;8.59;55.88;96906.31;5065216;28;20191;-70
2023/03/27 04:04:36;;;;;;;11.63;3.13;;;;;;;8.57;55.54;96917.88;5070256;28;20457;-70
2023/03/27 04:07:04;;;;;;;8.90;2.90;;;;;;;8.61;55.29;96919.22;5062433;28;20444;-71
2023/03/27 04:09:30;;;;;;;10.63;2.70;;;;;;;8.52;54.64;96927.94;5063892;28;20190;-71
2023/03/27 04:11:55;;;;;;;10.57;2.97;;;;;;;8.49;55.15;96941.28;5058020;28;20807;-70
2023/03/27 04:14:21;;;;;;;6.70;2.70;;;;;;;8.45;54.86;96943.34;5042850;28;20213;-71
2023/03/27 04:16:46;;;;;;;8.03;2.83;;;;;;;8.43;55.07;96959.19;5054935;28;20284;-70
2023/03/27 04:19:12;;;;;;;17.03;3.87;;;;;;;8.49;55.58;96967.41;5047761;28;20186;-70
2023/03/27 04:21:37;;;;;;;9.53;3.20;;;;;;;8.53;54.77;96969.59;5050520;28;20214;-70
2023/03/27 04:24:02;;;;;;;10.33;3.40;;;;;;;8.55;54.30;96966.84;5044022;28;20207;-70
2023/03/27 04:26:28;;;;;;;9.83;3.50;;;;;;;8.44;55.27;96983.50;5047490;28;20179;-70
2023/03/27 04:28:54;;;;;;;13.00;3.60;;;;;;;8.45;55.17;96988.56;5042565;28;20687;-70
2023/03/27 04:31:19;;;;;;;12.03;3.53;;;;;;;8.41;54.73;96997.66;5045495;28;20637;-70
2023/03/27 04:33:45;;;;;;;15.87;4.10;;;;;;;8.40;54.68;97000.41;5053140;28;20170;-71
2023/03/27 04:36:13;;;;;;;9.60;3.40;;;;;;;8.42;53.98;97007.16;5045644;28;20567;-70
2023/03/27 04:38:39;;;;;;;9.30;3.60;;;;;;;8.37;54.08;97016.38;5048080;28;20175;-70
2023/03/27 04:41:06;;;;;;;11.23;3.40;;;;;;;8.35;53.90;97021.72;5047696;28;21040;-69
2023/03/27 04:43:35;;;;;;;10.77;5.00;;;;;;;8.26;53.85;97019.97;5054362;28;20419;-70
2023/03/27 04:46:01;;;;;;;5.87;2.80;;;;;;;8.24;54.60;97032.34;5053856;28;20442;-70
2023/03/27 04:48:28;;;;;;;8.10;3.33;;;;;;;8.20;54.64;97036.19;5039856;28;20450;-70
2023/03/27 04:50:54;;;;;;;8.30;3.03;;;;;;;8.16;53.88;97046.09;5052049;28;20935;-71
2023/03/27 04:53:20;;;;;;;12.40;3.83;;;;;;;8.14;53.12;97046.25;5037867;28;20434;-71
2023/03/27 04:55:46;;;;;;;9.90;3.30;;;;;;;8.12;53.18;97061.22;5040768;28;20175;-72
2023/03/27 04:58:12;;;;;;;11.90;2.90;;;;;;;8.03;53.11;97071.69;5048282;28;20211;-71
2023/03/27 05:00:38;;;;;;;10.80;2.70;;;;;;;7.94;53.23;97066.34;5046675;28;20428;-70
2023/03/27 05:03:04;;;;;;;5.77;2.93;;;;;;;7.91;53.85;97071.03;5048106;28;20418;-71
2023/03/27 05:05:30;;;;;;;8.50;2.50;;;;;;;7.76;52.49;97076.66;5047379;28;20457;-71
2023/03/27 05:07:55;;;;;;;8.03;2.70;;;;;;;7.74;51.51;97090.81;5048090;28;20323;-70
2023/03/27 05:10:21;;;;;;;8.10;2.57;;;;;;;7.70;52.53;97092.84;5047596;28;20179;-70
2023/03/27 05:12:48;;;;;;;7.90;2.70;;;;;;;7.63;51.50;97094.34;5053432;28;20186;-73
2023/03/27 05:15:15;;;;;;;10.77;2.50;;;;;;;7.57;51.25;97103.56;5050231;28;20421;-73
2023/03/27 05:17:42;;;;;;;7.50;2.47;;;;;;;7.47;51.04;97108.75;5033371;28;20442;-73
2023/03/27 05:20:27;;;;;;;8.80;2.70;;;;;;;7.41;51.06;97129.31;5043007;28;20421;-71
2023/03/27 05:22:54;;;;;;;8.10;3.13;;;;;;;7.45;51.54;97126.31;5038804;28;20449;-70
2023/03/27 05:25:20;;;;;;;7.10;2.20;;;;;;;7.35;51.29;97135.91;5047347;28;20453;-71
2023/03/27 05:27:46;;;;;;;9.67;2.30;;;;;;;7.26;51.52;97141.91;5050051;28;20438;-70
2023/03/27 05:30:14;;;;;;;8.07;2.17;;;;;;;7.30;50.94;97148.53;5034858;28;20522;-73
2023/03/27 05:32:43;;;;;;;9.10;2.23;;;;;;;7.28;51.18;97164.28;5050927;28;20511;-72
2023/03/27 05:35:10;;;;;;;10.93;2.90;;;;;;;7.31;51.37;97171.84;5046988;28;20483;-72
2023/03/27 05:37:35;;;;;;;11.70;2.60;;;;;;;7.28;51.24;97168.69;5054446;28;20434;-72
2023/03/27 05:40:01;;;;;;;3.40;2.47;;;;;;;7.32;50.42;97180.47;5049864;28;20417;-72
2023/03/27 05:42:26;;;;;;;8.23;2.57;;;;;;;7.29;51.06;97185.97;5050459;28;20309;-72
2023/03/27 05:44:51;;;;;;;10.63;4.57;;;;;;;7.23;51.60;97188.16;5051893;28;20210;-71
2023/03/27 05:47:19;;;;;;;7.33;3.30;;;;;;;7.19;51.24;97185.94;5056309;28;20286;-71
2023/03/27 05:49:45;;;;;;;15.97;3.63;;;;;;;7.10;51.24;97199.75;5054786;28;20232;-70
2023/03/27 05:52:10;;;;;;;18.33;5.20;;;;;;;7.17;51.48;97188.69;5048713;28;20507;-72
2023/03/27 05:54:35;;;;;;;17.13;7.20;;;;;;;7.04;50.42;97190.69;5047516;28;20328;-73
2023/03/27 05:57:01;;;;;;;12.20;4.83;;;;;;;7.07;51.04;97185.19;5057057;28;20241;-71
2023/03/27 05:59:26;;;;;;;15.23;3.87;;;;;;;7.03;51.22;97199.47;5049038;28;20182;-71
2023/03/27 06:01:52;;;;;;;24.20;6.10;;;;;;;7.06;51.11;97209.59;5048473;28;20183;-71
2023/03/27 06:04:18;;;;;;;11.27;3.40;;;;;;;6.96;51.15;97220.00;5047308;28;20230;-70
2023/03/27 06:06:44;;;;;;;5.80;2.30;;;;;;;6.87;51.19;97226.78;5046104;28;20315;-70
2023/03/27 06:09:11;;;;;;;14.60;2.20;;;;;;;6.85;51.50;97223.50;5052074;28;20472;-71
2023/03/27 06:11:37;;;;;;;8.33;2.90;;;;;;;6.94;52.22;97237.53;5045704;28;20214;-71
2023/03/27 06:14:03;;;;;;;8.80;2.87;;;;;;;6.94;51.45;97247.97;5033828;28;20450;-71
2023/03/27 06:16:28;;;;;;;8.83;2.60;;;;;;;7.01;52.15;97238.66;5037073;28;20576;-71
2023/03/27 06:18:54;;;;;;;4.37;2.00;;;;;;;7.08;51.96;97252.00;5033505;28;20279;-70
2023/03/27 06:21:20;;;;;;;8.93;2.10;;;;;;;7.06;51.15;97264.31;5036106;28;20176;-70
2023/03/27 06:23:46;;;;;;;7.93;2.73;;;;;;;7.06;50.98;97269.53;5041959;28;20795;-71
2023/03/27 06:26:12;;;;;;;9.60;2.47;;;;;;;7.04;51.52;97274.09;5037786;28;20189;-70
2023/03/27 06:28:38;;;;;;;7.63;2.70;;;;;;;7.06;50.91;97279.97;5052790;28;20450;-69
2023/03/27 06:31:03;;;;;;;7.97;2.23;;;;;;;7.06;51.01;97277.34;5039160;28;20442;-71
2023/03/27 06:33:29;;;;;;;14.10;2.30;;;;;;;7.00;50.82;97288.31;5054753;28;20182;-70
2023/03/27 06:35:59;;;;;;;7.23;2.03;;;;;;;6.94;50.71;97300.06;5052119;28;20175;-70
2023/03/27 06:38:30;;;;;;;8.80;2.47;;;;;;;6.82;50.57;97306.28;5054339;28;20703;-71
2023/03/27 06:40:55;;;;;;;8.70;2.43;;;;;;;6.84;50.60;97312.22;5054022;28;20408;-70
2023/03/27 06:43:21;;;;;;;8.20;2.20;;;;;;;6.88;50.68;97321.41;5050744;28;20414;-71
2023/03/27 06:45:48;;;;;;;16.23;4.60;;;;;;;7.01;50.36;97331.66;5055598;28;20202;-70
2023/03/27 06:48:15;;;;;;;11.47;2.67;;;;;;;7.19;50.08;97327.50;5054899;28;20854;-70
2023/03/27 06:50:41;;;;;;;13.50;2.70;;;;;;;7.26;49.04;97333.03;5048817;28;20444;-69
2023/03/27 06:53:07;;;;;;;7.43;2.20;;;;;;;7.37;49.09;97342.59;5050776;28;20486;-70
2023/03/27 06:55:33;;;;;;;7.80;2.53;;;;;;;7.46;49.42;97346.22;5046493;28;20421;-71
2023/03/27 06:58:00;;;;;;;14.90;5.50;;;;;;;7.48;48.67;97355.53;5033735;28;20438;-69
2023/03/27 07:00:34;;;;;;;11.30;3.63;;;;;;;7.57;49.20;97364.38;5040175;28;20204;-69
2023/03/27 07:03:08;;;;;;;12.83;3.40;;;;;;;7.75;48.11;97366.41;5043451;28;20933;-69
2023/03/27 07:05:35;;;;;;;12.30;3.47;;;;;;;8.05;48.31;97377.75;5039250;28;20468;-70
2023/03/27 07:08:14;;;;;;;14.47;3.90;;;;;;;8.31;47.45;97367.69;5037157;28;20484;-70
2023/03/27 07:10:39;;;;;;;11.03;2.77;;;;;;;8.52;47.38;97370.22;5041590;28;20420;-69
2023/03/27 07:13:05;;;;;;;13.10;2.80;;;;;;;8.55;45.53;97379.59;5040058;28;20423;-70
2023/03/27 07:15:30;;;;;;;19.10;6.10;;;;;;;8.76;46.06;97375.06;5050077;28;20228;-70
2023/03/27 07:17:57;;;;;;;12.20;3.43;;;;;;;9.06;45.59;97386.34;5048100;28;20206;-70
2023/03/27 07:20:26;;;;;;;15.47;5.33;;;;;;;9.06;44.09;97394.19;5036831;28;20188;-70
2023/03/27 07:22:56;;;;;;;9.40;3.80;;;;;;;9.05;44.76;97387.31;5043622;28;20422;-69
2023/03/27 07:25:22;;;;;;;10.00;2.50;;;;;;;8.84;44.98;97390.06;5040925;28;20449;-70
2023/03/27 07:27:48;;;;;;;12.10;2.90;;;;;;;8.77;45.33;97399.41;5050499;28;20441;-70
2023/03/27 07:30:13;;;;;;;12.83;2.83;;;;;;;8.64;44.69;97399.66;5057480;28;20470;-70
2023/03/27 07:32:41;;;;;;;6.03;2.40;;;;;;;8.43;45.49;97404.94;5048847;28;20179;-69
2023/03/27 07:35:08;;;;;;;8.07;2.43;;;;;;;8.32;44.76;97429.38;5050301;28;20236;-70
2023/03/27 07:37:36;;;;;;;10.83;3.13;;;;;;;8.30;45.18;97423.47;5042323;28;20480;-70
2023/03/27 07:40:12;;;;;;;8.70;2.00;;;;;;;8.23;45.45;97430.19;5040795;28;20430;-69
2023/03/27 07:42:38;;;;;;;14.93;2.80;;;;;;;8.09;45.70;97426.16;5045901;28;20433;-71
2023/03/27 07:45:04;;;;;;;8.83;2.43;;;;;;;8.15;45.17;97434.28;5035783;28;20473;-70
2023/03/27 07:47:30;;;;;;;10.30;3.27;;;;;;;8.25;45.06;97441.31;5039572;28;20446;-69
2023/03/27 07:49:55;;;;;;;8.40;2.50;;;;;;;8.23;45.12;97448.47;5045044;28;20191;-69
2023/03/27 07:52:21;;;;;;;10.43;2.43;;;;;;;8.20;45.33;97454.78;5042484;28;20587;-69
2023/03/27 07:54:47;;;;;;;15.80;3.70;;;;;;;8.13;44.34;97459.69;5039109;28;20640;-70
2023/03/27 07:57:14;;;;;;;14.73;3.60;;;;;;;8.08;44.67;97472.31;5033847;28;20219;-69
2023/03/27 07:59:40;;;;;;;8.43;2.33;;;;;;;7.97;44.66;97475.84;5038795;28;20508;-70
2023/03/27 08:02:06;;;;;;;17.60;2.73;;;;;;;8.02;44.32;97472.00;5042258;28;20518;-70
2023/03/27 08:04:31;;;;;;;12.03;2.20;;;;;;;8.09;43.86;97481.78;5035083;28;20458;-70
2023/03/27 08:06:57;;;;;;;8.37;2.90;;;;;;;8.02;44.79;97496.31;5028159;28;20443;-69
2023/03/27 08:09:22;;;;;;;26.67;3.60;;;;;;;7.94;43.54;97499.56;5040207;28;20261;-71
2023/03/27 08:11:49;;;;;;;10.30;2.73;;;;;;;8.07;43.87;97511.59;5041621;28;20481;-69
2023/03/27 08:14:15;;;;;;;10.80;2.23;;;;;;;8.03;44.06;97510.19;5037789;28;20191;-71
2023/03/27 08:16:41;;;;;;;6.83;2.33;;;;;;;8.13;44.94;97517.13;5051192;28;20450;-71
2023/03/27 08:19:08;;;;;;;14.37;2.67;;;;;;;8.06;43.89;97523.00;5040381;28;20426;-70
2023/03/27 08:21:34;;;;;;;9.50;2.13;;;;;;;8.25;43.87;97517.88;5036635;28;20325;-70
2023/03/27 08:24:00;;;;;;;20.97;3.30;;;;;;;8.53;44.44;97525.19;5048319;28;20422;-68
2023/03/27 08:26:26;;;;;;;11.13;2.90;;;;;;;8.73;43.85;97534.75;5044770;28;20175;-70
2023/03/27 08:28:53;;;;;;;16.27;2.80;;;;;;;8.86;43.16;97531.91;5055960;28;20418;-71
2023/03/27 08:31:19;;;;;;;7.10;2.30;;;;;;;9.13;41.33;97529.59;5046489;28;20194;-70
2023/03/27 08:33:44;;;;;;;5.63;1.80;;;;;;;9.65;41.46;97521.50;5046198;28;20425;-70
2023/03/27 08:36:13;;;;;;;7.63;2.80;;;;;;;9.84;40.30;97523.28;5055353;28;20428;-70
2023/03/27 08:38:40;;;;;;;6.60;2.00;;;;;;;10.23;39.44;97533.69;5060255;28;20205;-69
2023/03/27 08:41:06;;;;;;;6.57;1.87;;;;;;;10.55;39.23;97527.28;5054402;28;20511;-69
2023/03/27 08:43:40;;;;;;;9.63;2.20;;;;;;;11.10;38.74;97530.03;5046663;28;20418;-69
2023/03/27 08:46:11;;;;;;;3.20;1.80;;;;;;;11.55;37.97;97529.16;5044780;28;20500;-72
2023/03/27 08:48:47;;;;;;;4.77;1.77;;;;;;;11.96;36.39;97536.56;5048605;28;20442;-70
2023/03/27 08:51:17;;;;;;;5.50;2.10;;;;;;;11.87;35.02;97542.72;5037020;28;20793;-72
2023/03/27 08:53:57;;;;;;;11.00;3.23;;;;;;;12.11;34.88;97539.47;5038775;28;20418;-71
2023/03/27 08:56:24;;;;;;;12.67;2.23;;;;;;;12.49;35.07;97552.34;5034568;28;20482;-70
2023/03/27 08:58:49;;;;;;;10.60;2.20;;;;;;;12.74;34.87;97543.59;5041003;28;20423;-69
2023/03/27 09:01:20;;;;;;;8.20;2.70;;;;;;;12.52;33.20;97552.03;5043080;28;20441;-69
2023/03/27 09:04:11;;;;;;;5.60;1.90;;;;;;;12.71;34.21;97559.72;5036169;28;20182;-69
2023/03/27 09:07:00;;;;;;;7.10;1.67;;;;;;;12.95;33.80;97566.06;5035487;28;20452;-71
2023/03/27 09:09:48;;;;;;;5.63;1.60;;;;;;;12.99;32.48;97570.00;5027792;28;20438;-71
2023/03/27 09:12:35;;;;;;;12.17;1.97;;;;;;;13.09;32.29;97566.44;5025522;28;20429;-69
2023/03/27 09:15:16;;;;;;;6.83;2.00;;;;;;;13.45;32.02;97574.13;5052998;28;20409;-71
2023/03/27 09:17:48;;;;;;;11.10;1.37;;;;;;;13.55;31.84;97571.31;5043298;28;20437;-71
2023/03/27 09:20:25;;;;;;;6.17;1.80;;;;;;;13.47;31.88;97585.31;5035495;28;20809;-72
2023/03/27 09:22:56;;;;;;;8.67;1.73;;;;;;;13.60;31.39;97582.22;5038536;28;20417;-71
2023/03/27 09:25:36;;;;;;;5.60;1.60;;;;;;;13.40;31.80;97587.78;5044125;28;20477;-68
2023/03/27 09:28:02;;;;;;;6.37;3.17;;;;;;;13.20;32.95;97592.47;5049896;28;20433;-70
2023/03/27 09:30:32;;;;;;;9.03;2.70;;;;;;;13.36;32.12;97592.47;5040447;28;20516;-69
2023/03/27 09:33:04;;;;;;;6.63;2.50;;;;;;;13.72;32.60;97598.53;5048138;28;20565;-69
2023/03/27 09:35:30;;;;;;;4.87;1.60;;;;;;;14.05;31.45;97585.38;5032687;28;20508;-72
2023/03/27 09:38:00;;;;;;;7.10;3.63;;;;;;;14.43;31.69;97578.56;5054782;28;20544;-69
2023/03/27 09:40:32;;;;;;;5.53;2.20;;;;;;;14.84;31.20;97593.50;5047079;28;20922;-69
2023/03/27 09:43:08;;;;;;;4.53;2.07;;;;;;;15.02;29.61;97588.00;5033255;28;20788;-71
2023/03/27 09:45:37;;;;;;;7.57;1.63;;;;;;;15.01;29.94;97596.06;5048427;28;20483;-72
2023/03/27 09:48:04;;;;;;;5.67;1.37;;;;;;;14.96;29.34;97601.88;5028881;28;20837;-70
2023/03/27 09:50:40;;;;;;;10.83;1.73;;;;;;;14.96;29.61;97608.97;5051527;28;20428;-70
2023/03/27 09:53:14;;;;;;;3.57;1.30;;;;;;;15.11;28.86;97599.34;5048692;28;20491;-69
2023/03/27 09:56:00;;;;;;;3.63;1.57;;;;;;;15.05;29.27;97613.22;5043248;28;20471;-72
2023/03/27 09:58:25;;;;;;;4.47;1.53;;;;;;;14.89;28.05;97619.38;5049800;28;20440;-71
2023/03/27 10:01:06;;;;;;;11.60;2.00;;;;;;;15.21;28.75;97625.53;5054515;28;20428;-71
2023/03/27 10:03:47;;;;;;;7.13;1.50;;;;;;;15.20;28.25;97618.59;5048023;28;20183;-70
2023/03/27 10:06:16;;;;;;;5.97;1.80;;;;;;;15.22;28.86;97619.25;5050468;28;20410;-71
2023/03/27 10:08:45;;;;;;;5.50;1.70;;;;;;;15.17;28.47;97627.69;5062119;28;21912;-71
2023/03/27 10:11:16;;;;;;;6.63;1.67;;;;;;;15.15;27.34;97634.97;5046724;28;20414;-71
2023/03/27 10:13:46;;;;;;;5.53;1.50;;;;;;;15.11;27.11;97628.41;5040196;28;20426;-70
2023/03/27 10:16:16;;;;;;;3.10;1.27;;;;;;;15.40;26.92;97623.47;5053092;28;20498;-70
2023/03/27 10:18:44;;;;;;;5.80;1.50;;;;;;;15.46;27.84;97634.19;5051006;28;20529;-70
2023/03/27 10:21:15;;;;;;;5.43;1.40;;;;;;;15.80;28.28;97626.88;5050506;28;21175;-73
2023/03/27 10:23:43;;;;;;;7.33;2.23;;;;;;;15.54;29.04;97627.19;5059254;28;20422;-70
2023/03/27 10:26:12;;;;;;;5.63;2.00;;;;;;;15.43;29.09;97639.78;5040654;28;20465;-71
2023/03/27 10:28:43;;;;;;;4.20;1.63;;;;;;;15.05;27.70;97636.97;5049416;28;20445;-71
2023/03/27 10:31:33;;;;;;;9.53;1.80;;;;;;;14.81;27.49;97636.06;5052460;28;20822;-70
2023/03/27 10:34:00;;;;;;;6.80;1.47;;;;;;;14.95;28.37;97644.28;5053326;28;20579;-71
2023/03/27 10:36:26;;;;;;;5.33;1.80;;;;;;;15.03;26.62;97647.72;5047325;28;20467;-71
2023/03/27 10:38:59;;;;;;;7.13;1.53;;;;;;;15.02;26.97;97635.50;5050269;28;20425;-69
2023/03/27 10:41:26;;;;;;;3.37;1.20;;;;;;;15.34;27.60;97641.66;5050859;28;20516;-73
2023/03/27 10:43:52;;;;;;;8.53;1.80;;;;;;;15.71;27.63;97638.47;5049890;28;20475;-69
2023/03/27 10:46:23;;;;;;;4.73;2.17;;;;;;;15.91;29.31;97652.94;5049435;28;20441;-71
2023/03/27 10:49:09;;;;;;;7.03;2.40;;;;;;;16.08;31.05;97650.16;5051532;28;20232;-71
2023/03/27 10:51:46;;;;;;;4.90;1.50;;;;;;;16.27;26.17;97654.16;5051967;28;20914;-70
2023/03/27 10:54:33;;;;;;;4.60;1.60;;;;;;;16.40;24.90;97659.66;5050263;28;20898;-70
2023/03/27 10:57:12;;;;;;;5.67;1.53;;;;;;;16.58;24.75;97646.09;5048425;28;21026;-69
2023/03/27 10:59:54;;;;;;;7.07;2.07;;;;;;;16.61;25.25;97647.59;5049148;28;20425;-70
2023/03/27 11:02:27;;;;;;;3.77;1.57;;;;;;;16.17;24.88;97664.97;5047323;28;20417;-70
2023/03/27 11:05:01;;;;;;;7.53;1.50;;;;;;;15.81;25.24;97674.25;5043021;28;20472;-72
2023/03/27 11:07:36;;;;;;;3.87;1.23;;;;;;;15.65;24.67;97674.34;5038801;28;20480;-70
2023/03/27 11:10:13;;;;;;;5.10;1.60;;;;;;;15.73;25.35;97665.56;5048831;28;20432;-70
2023/03/27 11:12:39;;;;;;;2.53;1.20;;;;;;;16.18;24.94;97671.09;5061677;28;20412;-71
2023/03/27 11:15:13;;;;;;;3.63;1.23;;;;;;;16.47;24.22;97669.53;5051026;28;20487;-71
2023/03/27 11:17:51;;;;;;;7.00;1.50;;;;;;;16.71;23.16;97663.19;5037943;28;20452;-70
2023/03/27 11:20:21;;;;;;;2.60;1.50;;;;;;;16.38;23.80;97671.44;5046126;28;20472;-71
2023/03/27 11:22:54;;;;;;;6.47;1.77;;;;;;;16.01;25.31;97679.13;5046706;28;20419;-70
2023/03/27 11:25:42;;;;;;;3.23;1.30;;;;;;;15.54;24.16;97687.94;5038611;28;20442;-69
2023/03/27 11:28:38;;;;;;;4.67;1.27;;;;;;;15.53;24.26;97684.50;5049285;28;20452;-72
2023/03/27 11:31:12;;;;;;;2.43;1.30;;;;;;;15.43;25.10;97689.16;5043245;28;20499;-69
2023/03/27 11:34:06;;;;;;;7.90;1.30;;;;;;;15.07;25.43;97698.34;5037044;28;20433;-71
2023/03/27 11:37:03;;;;;;;6.47;1.50;;;;;;;14.88;26.44;97696.91;5045780;28;20414;-69
2023/03/27 11:39:40;;;;;;;2.53;1.17;;;;;;;14.70;26.16;97703.19;5048263;28;20529;-72
2023/03/27 11:42:14;;;;;;;5.33;1.10;;;;;;;14.64;26.69;97701.19;5056625;28;20430;-69
2023/03/27 11:44:40;;;;;;;4.73;1.77;;;;;;;14.51;26.90;97721.97;5038258;28;20462;-69
2023/03/27 11:47:26;;;;;;;4.90;1.93;;;;;;;13.80;26.86;97709.19;5049558;28;20540;-69
2023/03/27 11:50:14;;;;;;;5.10;2.20;;;;;;;13.49;27.71;97717.63;5036890;28;20437;-69
2023/03/27 11:53:09;;;;;;;7.00;2.27;;;;;;;13.18;28.32;97720.75;5059848;28;20430;-69